Aérodrome :
LOGIN :

S'inscrire | Disclaimer

   EN    FR    IT 

 










Légende :    VFR   VFR Marginal   IFR   IFR Intensif   IFR Très Intensif
Visi : 
Plafond : 
>= 8 km
>= 3000ft
5 à 8 km
1000 à 3000 ft
1500m à 5 km
500 à 1000 ft
800 à 1500m
200 à 500 ft
< 800m
< 200 ft
Symboles :   Orages  Brouillard  Fortes neiges  Fortes précipitations  Vent > 20 kt
SIGMETs :   Divers  Orages  Givrage  Turbulence  Onde Orograph.  Cendres Volcan.






- Altitude de l'aérodrome : 313 ft


LFQA - Reims-Prunay

DERNIER METAR :
  • 141300Z AUTO 21014KT 180V240 9999 FEW040 SCT056 BKN070 21/13 Q1007

METARs EXPIRÉS :
  • 141230Z AUTO 23011KT 190V270 9999 BKN039 OVC062 20/12 Q1007
  • 141200Z AUTO 25009KT 210V290 9999 FEW030 SCT035 OVC056 20/14 Q1008
  • 141130Z AUTO 23014KT 200V270 9999 FEW029 SCT035 BKN046 19/13 Q1008
  • 141100Z AUTO 22011KT 180V240 9999 BKN028 BKN038 BKN045 19/13 Q1008
  • 141030Z AUTO 20011KT 9999 BKN025 BKN042 OVC050 18/13 Q1008
  • 141000Z AUTO 20009KT 170V240 9999 BKN019 BKN025 OVC048 18/14 Q1008
  • 140930Z AUTO 19009KT 160V220 9999 BKN017 BKN022 BKN034 17/14 Q1008
  • 140900Z AUTO 19011KT 9999 BKN013 BKN026 OVC050 17/14 Q1008
  • 140830Z AUTO 17008KT 9999 OVC010 15/13 Q1008

TAF N/A



MET'MAP, la Météo Aéronautique d'un coup d'oeil ! - Copyright ORBIFLY Décembre 2007 - Disclaimer

ORBIFLY MET'MAP TEAM :

Programmation & Développement : Alexandra Zaïnal
Sur une idée originale de : Baudouin d'Aumeries
Soutien technique & logistique : Manuel Goepfert
Assistance : Marc-Olivier Méhu




SOURCES & CREDITS :

   NOAA